createdAt,value
2018-06-03T00:00:12.012Z,16.30
2018-06-03T00:01:11.878Z,16.50
2018-06-03T00:03:04.765Z,16.70
2018-06-03T00:04:04.639Z,16.60
2018-06-03T00:05:57.470Z,16.30
2018-06-03T00:06:57.382Z,15.90
2018-06-03T00:08:50.228Z,16.50
2018-06-03T00:09:50.167Z,16.10
2018-06-03T00:11:42.972Z,16.70
2018-06-03T00:12:42.876Z,16.20
2018-06-03T00:14:36.324Z,16.40
2018-06-03T00:15:35.631Z,16.90
2018-06-03T00:17:28.471Z,17.20
2018-06-03T00:18:28.379Z,17.90
2018-06-03T00:20:21.268Z,17.50
2018-06-03T00:21:21.130Z,16.70
2018-06-03T00:23:13.971Z,17.60
2018-06-03T00:24:13.887Z,17.40
2018-06-03T00:26:06.797Z,17.80
2018-06-03T00:27:06.634Z,17.70
2018-06-03T00:28:59.484Z,17.80
2018-06-03T00:29:59.381Z,17.70
2018-06-03T00:31:52.263Z,17.50
2018-06-03T00:32:52.123Z,17.70
2018-06-03T00:34:44.969Z,17.80
2018-06-03T00:35:44.907Z,18.10
2018-06-03T00:37:37.726Z,18.30
2018-06-03T00:38:37.628Z,17.60
2018-06-03T00:40:30.606Z,17.80
2018-06-03T00:41:30.378Z,17.60
2018-06-03T00:43:23.213Z,17.00
2018-06-03T00:44:23.123Z,17.60
2018-06-03T00:46:15.997Z,18.20
2018-06-03T00:47:15.874Z,17.40
2018-06-03T00:49:08.710Z,18.00
2018-06-03T00:50:08.621Z,18.10
2018-06-03T00:52:01.485Z,18.00
2018-06-03T00:53:01.367Z,18.70
2018-06-03T00:54:54.213Z,18.10
2018-06-03T00:55:54.134Z,17.80
2018-06-03T00:57:46.995Z,17.80
2018-06-03T00:58:46.865Z,17.60
2018-06-03T01:00:39.732Z,18.30
2018-06-03T01:01:40.152Z,18.30
2018-06-03T01:03:32.501Z,19.30
2018-06-03T01:04:32.365Z,19.00
2018-06-03T01:06:25.725Z,19.10
2018-06-03T01:07:25.657Z,19.10
2018-06-03T01:09:18.997Z,19.50
2018-06-03T01:10:18.890Z,19.30
2018-06-03T01:12:11.756Z,20.00
2018-06-03T01:13:11.640Z,18.30
2018-06-03T01:15:04.487Z,18.30
2018-06-03T01:16:04.396Z,18.70
2018-06-03T01:17:57.260Z,18.50
2018-06-03T01:18:57.160Z,18.50
2018-06-03T01:20:49.987Z,18.50
2018-06-03T01:21:49.888Z,17.90
2018-06-03T01:23:42.769Z,18.00
2018-06-03T01:24:42.659Z,18.50
2018-06-03T01:26:35.484Z,17.70
2018-06-03T01:27:35.391Z,17.80
2018-06-03T01:29:28.259Z,18.30
2018-06-03T01:30:28.141Z,20.20
2018-06-03T01:32:20.997Z,19.50
2018-06-03T01:33:20.899Z,20.20
2018-06-03T01:35:13.762Z,19.60
2018-06-03T01:36:13.649Z,19.60
2018-06-03T01:38:06.481Z,19.00
2018-06-03T01:39:06.391Z,18.80
2018-06-03T01:40:59.246Z,18.90
2018-06-03T01:41:59.134Z,19.20
2018-06-03T01:43:51.983Z,18.80
2018-06-03T01:44:51.883Z,20.10
2018-06-03T01:46:44.748Z,20.00
2018-06-03T01:47:44.657Z,20.00
2018-06-03T01:49:37.525Z,19.60
2018-06-03T01:50:37.383Z,20.60
2018-06-03T01:52:30.227Z,21.10
2018-06-03T01:53:30.134Z,21.40
2018-06-03T01:55:23.003Z,20.20
2018-06-03T01:56:22.903Z,20.30
2018-06-03T01:58:15.727Z,22.00
2018-06-03T01:59:15.656Z,21.70
2018-06-03T02:01:08.498Z,19.90
2018-06-03T02:02:08.403Z,19.50
2018-06-03T02:04:01.232Z,19.90
2018-06-03T02:05:01.129Z,20.00
2018-06-03T02:06:54.025Z,20.60
2018-06-03T02:07:53.885Z,21.50
2018-06-03T02:09:46.723Z,20.60
2018-06-03T02:10:46.641Z,21.70
2018-06-03T02:12:39.493Z,20.30
2018-06-03T02:13:39.378Z,20.70
2018-06-03T02:15:32.226Z,20.10
2018-06-03T02:16:32.137Z,20.60
2018-06-03T02:18:25.005Z,21.20
2018-06-03T02:19:24.883Z,20.60
2018-06-03T02:21:17.730Z,20.10
2018-06-03T02:22:17.634Z,21.30
2018-06-03T02:24:10.487Z,20.20
2018-06-03T02:25:10.386Z,21.20
2018-06-03T02:27:03.247Z,20.90
2018-06-03T02:28:03.172Z,21.30
2018-06-03T02:29:55.993Z,20.60
2018-06-03T02:30:55.884Z,20.50
2018-06-03T02:32:48.775Z,20.70
2018-06-03T02:33:48.633Z,20.30
2018-06-03T02:35:41.475Z,21.10
2018-06-03T02:36:41.380Z,20.90
2018-06-03T02:38:34.249Z,20.80
2018-06-03T02:39:34.141Z,21.30
2018-06-03T02:41:27.375Z,21.10
2018-06-03T02:42:27.303Z,21.50
2018-06-03T02:44:20.152Z,21.30
2018-06-03T02:45:20.030Z,20.40
2018-06-03T02:47:12.881Z,21.70
2018-06-03T02:48:12.816Z,21.10
2018-06-03T02:50:05.656Z,20.40
2018-06-03T02:51:05.559Z,20.00
2018-06-03T02:52:58.396Z,20.20
2018-06-03T02:53:58.303Z,21.40
2018-06-03T02:55:51.151Z,20.20
2018-06-03T02:56:51.041Z,20.60
2018-06-03T02:58:43.906Z,20.90
2018-06-03T02:59:43.794Z,20.20
2018-06-03T03:01:36.661Z,20.00
2018-06-03T03:02:36.552Z,19.90
2018-06-03T03:04:29.420Z,20.00
2018-06-03T03:05:29.282Z,20.90
2018-06-03T03:07:22.638Z,20.90
2018-06-03T03:08:22.138Z,21.20
2018-06-03T03:10:15.003Z,21.40
2018-06-03T03:11:14.894Z,21.50
2018-06-03T03:13:07.729Z,20.60
2018-06-03T03:14:07.649Z,20.20
2018-06-03T03:16:00.510Z,22.40
2018-06-03T03:17:00.402Z,21.40
2018-06-03T03:18:53.289Z,20.70
2018-06-03T03:19:53.132Z,20.90
2018-06-03T03:21:45.981Z,20.10
2018-06-03T03:22:45.887Z,20.20
2018-06-03T03:24:38.750Z,20.00
2018-06-03T03:25:38.630Z,19.50
2018-06-03T03:27:31.511Z,19.50
2018-06-03T03:28:31.394Z,20.70
2018-06-03T03:30:24.271Z,21.90
2018-06-03T03:31:24.161Z,21.90
2018-06-03T03:33:16.984Z,21.30
2018-06-03T03:34:16.880Z,21.60
2018-06-03T03:36:09.749Z,21.30
2018-06-03T03:37:09.635Z,22.40
2018-06-03T03:39:02.534Z,21.50
2018-06-03T03:40:02.379Z,21.50
2018-06-03T03:41:55.266Z,22.00
2018-06-03T03:42:55.154Z,22.00
2018-06-03T03:44:47.991Z,23.00
2018-06-03T03:45:47.883Z,22.80
2018-06-03T03:47:40.738Z,22.60
2018-06-03T03:48:40.628Z,22.70
2018-06-03T03:50:33.508Z,22.80
2018-06-03T03:51:33.379Z,22.80
2018-06-03T03:53:26.246Z,21.60
2018-06-03T03:54:26.148Z,21.90
2018-06-03T03:56:18.997Z,20.50
2018-06-03T03:57:18.894Z,22.50
2018-06-03T03:59:11.768Z,22.40
2018-06-03T04:00:11.629Z,22.00
2018-06-03T04:02:04.488Z,20.40
2018-06-03T04:03:04.395Z,19.80
2018-06-03T04:04:57.228Z,20.80
2018-06-03T04:05:57.159Z,20.60
2018-06-03T04:07:50.003Z,20.70
2018-06-03T04:08:49.875Z,20.90
2018-06-03T04:10:42.730Z,19.70
2018-06-03T04:11:42.622Z,20.20
2018-06-03T04:13:35.500Z,21.60
2018-06-03T04:14:35.378Z,20.60
2018-06-03T04:16:28.232Z,21.20
2018-06-03T04:17:28.139Z,21.30
2018-06-03T04:19:21.013Z,21.00
2018-06-03T04:20:20.873Z,21.20
2018-06-03T04:22:13.715Z,21.30
2018-06-03T04:23:13.634Z,21.20
2018-06-03T04:25:06.480Z,21.70
2018-06-03T04:26:06.383Z,22.00
2018-06-03T04:27:59.245Z,21.70
2018-06-03T04:28:59.130Z,21.80
2018-06-03T04:30:51.968Z,22.80
2018-06-03T04:31:51.903Z,22.40
2018-06-03T04:33:44.725Z,22.70
2018-06-03T04:34:44.623Z,22.40
2018-06-03T04:36:37.459Z,22.60
2018-06-03T04:37:37.368Z,21.90
2018-06-03T04:39:30.234Z,21.00
2018-06-03T04:40:30.140Z,20.60
2018-06-03T04:42:22.963Z,20.20
2018-06-03T04:43:22.865Z,19.90
2018-06-03T04:45:15.726Z,20.70
2018-06-03T04:46:15.640Z,21.20
2018-06-03T04:48:08.477Z,20.40
2018-06-03T04:49:08.374Z,20.40
2018-06-03T04:51:01.245Z,21.50
2018-06-03T04:52:01.114Z,21.70
2018-06-03T04:53:53.973Z,20.90
2018-06-03T04:54:53.885Z,20.30
2018-06-03T04:56:46.716Z,19.80
2018-06-03T04:57:46.616Z,20.90
2018-06-03T04:59:39.473Z,21.70
2018-06-03T05:00:39.400Z,20.80
2018-06-03T05:02:32.317Z,21.10
2018-06-03T05:03:32.227Z,21.50
2018-06-03T05:05:26.029Z,20.70
2018-06-03T05:06:25.911Z,20.50
2018-06-03T05:08:18.747Z,21.80
2018-06-03T05:09:18.655Z,21.20
2018-06-03T05:11:11.521Z,21.00
2018-06-03T05:12:11.396Z,20.60
2018-06-03T05:14:04.342Z,21.30
2018-06-03T05:15:04.246Z,20.30
2018-06-03T05:16:57.096Z,20.20
2018-06-03T05:17:57.015Z,20.10
2018-06-03T05:19:49.844Z,20.40
2018-06-03T05:20:49.763Z,19.80
2018-06-03T05:22:42.593Z,21.00
2018-06-03T05:23:42.502Z,19.90
2018-06-03T05:25:35.358Z,19.70
2018-06-03T05:26:35.248Z,20.60
2018-06-03T05:28:28.097Z,20.20
2018-06-03T05:29:28.008Z,21.10
2018-06-03T05:31:20.846Z,19.40
2018-06-03T05:32:20.750Z,20.70
2018-06-03T05:34:13.603Z,20.20
2018-06-03T05:35:13.503Z,19.60
2018-06-03T05:37:06.353Z,19.10
2018-06-03T05:38:06.288Z,20.60
2018-06-03T05:39:59.085Z,20.20
2018-06-03T05:40:58.995Z,20.90
2018-06-03T05:42:51.870Z,20.80
2018-06-03T05:43:51.738Z,21.10
2018-06-03T05:45:44.673Z,21.60
2018-06-03T05:46:44.487Z,21.80
2018-06-03T05:48:37.355Z,22.80
2018-06-03T05:49:37.241Z,22.60
2018-06-03T05:51:30.082Z,22.60
2018-06-03T05:52:29.989Z,24.90
2018-06-03T05:54:22.872Z,24.30
2018-06-03T05:55:22.761Z,23.90
2018-06-03T05:57:15.626Z,24.60
2018-06-03T05:58:15.508Z,23.90
2018-06-03T06:00:08.849Z,23.70
2018-06-03T06:01:08.761Z,23.30
2018-06-03T06:03:01.635Z,23.20
2018-06-03T06:04:01.500Z,21.70
2018-06-03T06:05:54.348Z,22.60
2018-06-03T06:06:54.255Z,23.00
2018-06-03T06:08:47.311Z,23.80
2018-06-03T06:09:47.215Z,24.70
2018-06-03T06:11:40.047Z,22.60
2018-06-03T06:12:39.952Z,22.20
2018-06-03T06:14:32.816Z,23.40
2018-06-03T06:15:32.716Z,22.60
2018-06-03T06:17:25.549Z,25.60
2018-06-03T06:18:25.461Z,26.80
2018-06-03T06:20:18.322Z,25.90
2018-06-03T06:21:18.205Z,25.80
2018-06-03T06:23:11.070Z,26.20
2018-06-03T06:24:10.958Z,26.20
2018-06-03T06:26:03.817Z,25.00
2018-06-03T06:27:03.714Z,24.80
2018-06-03T06:28:56.546Z,23.10
2018-06-03T06:29:56.445Z,25.30
2018-06-03T06:31:49.408Z,25.10
2018-06-03T06:32:49.303Z,24.70
2018-06-03T06:34:42.288Z,24.10
2018-06-03T06:35:42.157Z,22.40
2018-06-03T06:37:34.990Z,23.20
2018-06-03T06:38:34.919Z,23.20
2018-06-03T06:40:27.783Z,22.40
2018-06-03T06:41:27.649Z,22.40
2018-06-03T06:43:20.502Z,22.20
2018-06-03T06:44:20.405Z,22.30
2018-06-03T06:46:13.284Z,22.60
2018-06-03T06:47:13.158Z,21.90
2018-06-03T06:49:06.001Z,22.40
2018-06-03T06:50:05.933Z,22.40
2018-06-03T06:51:58.771Z,21.20
2018-06-03T06:52:58.661Z,22.00
2018-06-03T06:54:51.518Z,22.30
2018-06-03T06:55:51.411Z,23.40
2018-06-03T06:57:44.773Z,21.90
2018-06-03T06:58:44.667Z,21.60
2018-06-03T07:00:37.552Z,22.40
2018-06-03T07:01:37.428Z,22.20
2018-06-03T07:03:30.259Z,22.80
2018-06-03T07:04:30.173Z,22.40
2018-06-03T07:06:23.052Z,22.30
2018-06-03T07:07:22.925Z,23.00
2018-06-03T07:09:15.782Z,23.90
2018-06-03T07:10:15.669Z,23.90
2018-06-03T07:12:08.523Z,23.50
2018-06-03T07:13:08.444Z,24.70
2018-06-03T07:15:01.277Z,24.60
2018-06-03T07:16:01.166Z,24.90
2018-06-03T07:17:54.021Z,23.70
2018-06-03T07:18:53.921Z,23.90
2018-06-03T07:20:46.759Z,23.70
2018-06-03T07:21:46.677Z,23.80
2018-06-03T07:23:39.617Z,21.60
2018-06-03T07:24:39.523Z,23.20
2018-06-03T07:26:32.467Z,24.00
2018-06-03T07:27:32.371Z,24.40
2018-06-03T07:29:25.229Z,21.90
2018-06-03T07:30:25.154Z,20.70
2018-06-03T07:32:17.963Z,21.90
2018-06-03T07:33:17.882Z,22.90
2018-06-03T07:35:10.731Z,23.10
2018-06-03T07:36:10.627Z,23.10
2018-06-03T07:38:03.501Z,23.50
2018-06-03T07:39:03.376Z,23.50
2018-06-03T07:40:56.313Z,23.40
2018-06-03T07:41:56.234Z,23.90
2018-06-03T07:43:49.082Z,22.10
2018-06-03T07:44:48.983Z,22.40
2018-06-03T07:46:41.826Z,22.00
2018-06-03T07:47:41.742Z,21.40
2018-06-03T07:49:34.596Z,20.90
2018-06-03T07:50:34.468Z,21.60
2018-06-03T07:52:27.328Z,21.00
2018-06-03T07:53:27.232Z,20.30
2018-06-03T07:55:20.076Z,20.60
2018-06-03T07:56:20.003Z,19.70
2018-06-03T07:58:12.820Z,19.90
2018-06-03T07:59:12.736Z,20.00
2018-06-03T08:01:05.677Z,21.10
2018-06-03T08:02:05.581Z,19.90
2018-06-03T08:03:58.437Z,21.10
2018-06-03T08:04:58.317Z,20.10
2018-06-03T08:06:51.185Z,20.50
2018-06-03T08:07:51.066Z,21.10
2018-06-03T08:09:43.922Z,21.20
2018-06-03T08:10:43.815Z,20.20
2018-06-03T08:12:37.293Z,20.70
2018-06-03T08:13:37.238Z,19.50
2018-06-03T08:15:30.065Z,19.60
2018-06-03T08:16:29.933Z,19.30
2018-06-03T08:18:22.777Z,19.00
2018-06-03T08:19:22.696Z,19.40
2018-06-03T08:21:15.647Z,20.30
2018-06-03T08:22:15.537Z,19.70
2018-06-03T08:24:08.404Z,20.80
2018-06-03T08:25:08.300Z,19.90
2018-06-03T08:27:01.152Z,19.90
2018-06-03T08:28:01.042Z,18.30
2018-06-03T08:29:53.924Z,18.20
2018-06-03T08:30:53.796Z,17.80
2018-06-03T08:32:47.163Z,17.40
2018-06-03T08:33:46.531Z,16.50
2018-06-03T08:35:39.492Z,15.90
2018-06-03T08:36:39.382Z,16.40
2018-06-03T08:38:32.363Z,16.80
2018-06-03T08:39:32.253Z,16.50
2018-06-03T08:41:25.105Z,17.20
2018-06-03T08:42:24.994Z,17.30
2018-06-03T08:44:18.348Z,16.70
2018-06-03T08:45:17.731Z,17.10
2018-06-03T08:47:10.711Z,17.20
2018-06-03T08:48:10.596Z,17.50
2018-06-03T08:50:03.564Z,17.80
2018-06-03T08:51:03.434Z,17.70
2018-06-03T08:52:56.312Z,18.70
2018-06-03T08:53:56.185Z,19.80
2018-06-03T08:55:49.562Z,18.10
2018-06-03T08:56:49.473Z,17.90
2018-06-03T08:58:42.408Z,16.50
2018-06-03T08:59:42.301Z,17.40
2018-06-03T09:01:35.243Z,18.30
2018-06-03T09:02:35.147Z,17.20
2018-06-03T09:04:28.131Z,16.20
2018-06-03T09:05:28.010Z,16.00
2018-06-03T09:07:20.956Z,16.60
2018-06-03T09:08:20.869Z,17.30
2018-06-03T09:10:13.816Z,16.70
2018-06-03T09:11:13.712Z,16.70
2018-06-03T09:13:07.127Z,16.60
2018-06-03T09:14:06.968Z,16.10
2018-06-03T09:15:59.913Z,16.10
2018-06-03T09:16:59.838Z,16.20
2018-06-03T09:18:52.821Z,17.90
2018-06-03T09:19:52.676Z,17.60
2018-06-03T09:21:46.039Z,17.90
2018-06-03T09:22:45.547Z,17.70
2018-06-03T09:24:38.507Z,15.90
2018-06-03T09:25:38.372Z,14.70
2018-06-03T09:27:31.317Z,13.80
2018-06-03T09:28:31.229Z,13.80
2018-06-03T09:30:24.217Z,16.00
2018-06-03T09:31:24.089Z,15.20
2018-06-03T09:33:17.049Z,14.20
2018-06-03T09:34:16.952Z,14.80
2018-06-03T09:36:09.892Z,14.80
2018-06-03T09:37:09.789Z,14.00
2018-06-03T09:39:03.147Z,13.20
2018-06-03T09:40:03.050Z,13.00
2018-06-03T09:41:56.008Z,13.50
2018-06-03T09:42:55.907Z,12.30
2018-06-03T09:44:48.835Z,12.80
2018-06-03T09:45:48.763Z,12.50
2018-06-03T09:47:41.720Z,12.80
2018-06-03T09:48:41.662Z,11.70
2018-06-03T09:50:34.567Z,12.10
2018-06-03T09:51:34.449Z,11.90
2018-06-03T09:53:27.404Z,12.20
2018-06-03T09:54:27.307Z,12.70
2018-06-03T09:56:20.267Z,12.50
2018-06-03T09:57:20.174Z,12.30
2018-06-03T09:59:13.925Z,12.90
2018-06-03T10:00:13.865Z,12.50
2018-06-03T10:02:06.798Z,12.90
2018-06-03T10:03:06.677Z,13.50
2018-06-03T10:04:59.622Z,15.80
2018-06-03T10:05:59.542Z,15.40
2018-06-03T10:07:52.592Z,16.00
2018-06-03T10:08:52.488Z,15.60
2018-06-03T10:10:45.431Z,14.80
2018-06-03T10:11:45.337Z,15.50
2018-06-03T10:13:38.288Z,15.70
2018-06-03T10:14:38.210Z,15.90
2018-06-03T10:16:31.156Z,14.90
2018-06-03T10:17:31.063Z,15.10
2018-06-03T10:19:24.010Z,16.30
2018-06-03T10:20:23.915Z,16.00
2018-06-03T10:22:16.836Z,15.30
2018-06-03T10:23:16.754Z,15.60
2018-06-03T10:25:09.709Z,16.00
2018-06-03T10:26:09.606Z,16.40
2018-06-03T10:28:02.567Z,15.70
2018-06-03T10:29:02.463Z,16.30
2018-06-03T10:30:55.400Z,15.90
2018-06-03T10:31:55.302Z,16.10
2018-06-03T10:33:48.271Z,16.20
2018-06-03T10:34:48.172Z,16.20
2018-06-03T10:36:41.625Z,16.10
2018-06-03T10:37:41.517Z,16.20
2018-06-03T10:39:34.491Z,15.70
2018-06-03T10:40:34.374Z,16.30
2018-06-03T10:42:27.349Z,15.80
2018-06-03T10:43:27.236Z,15.60
2018-06-03T10:45:20.193Z,16.60
2018-06-03T10:46:20.084Z,16.00
2018-06-03T10:48:13.028Z,16.20
2018-06-03T10:49:12.962Z,16.20
2018-06-03T10:51:05.874Z,15.50
2018-06-03T10:52:05.774Z,14.80
2018-06-03T10:53:58.754Z,14.50
2018-06-03T10:54:58.631Z,15.00
2018-06-03T10:56:51.595Z,15.40
2018-06-03T10:57:51.480Z,15.70
2018-06-03T10:59:45.290Z,15.20
2018-06-03T11:00:45.150Z,14.90
2018-06-03T11:02:37.992Z,14.30
2018-06-03T11:03:37.908Z,13.70
2018-06-03T11:05:30.905Z,14.60
2018-06-03T11:06:30.760Z,14.30
2018-06-03T11:08:23.693Z,13.60
2018-06-03T11:09:23.607Z,14.00
2018-06-03T11:11:16.570Z,13.70
2018-06-03T11:12:16.469Z,13.60
2018-06-03T11:14:09.406Z,12.60
2018-06-03T11:15:09.314Z,12.30
2018-06-03T11:17:23.257Z,12.10
2018-06-03T11:18:02.172Z,12.50
2018-06-03T11:19:55.149Z,11.50
2018-06-03T11:20:55.023Z,12.20
2018-06-03T11:22:47.966Z,11.80
2018-06-03T11:23:47.876Z,11.60
2018-06-03T11:25:40.722Z,12.10
2018-06-03T11:26:40.629Z,12.20
2018-06-03T11:28:33.494Z,11.90
2018-06-03T11:29:33.369Z,12.00
2018-06-03T11:31:26.237Z,11.80
2018-06-03T11:32:26.292Z,11.50
2018-06-03T11:34:18.964Z,10.90
2018-06-03T11:35:18.896Z,11.60
2018-06-03T11:37:11.726Z,10.90
2018-06-03T11:38:11.647Z,10.20
2018-06-03T11:40:04.456Z,10.20
2018-06-03T11:41:04.375Z,10.60
2018-06-03T11:42:57.260Z,10.40
2018-06-03T11:43:57.129Z,10.30
2018-06-03T11:45:49.958Z,9.10
2018-06-03T11:46:49.876Z,8.60
2018-06-03T11:48:43.246Z,9.30
2018-06-03T11:49:42.643Z,9.10
2018-06-03T11:51:35.489Z,8.50
2018-06-03T11:52:35.375Z,8.80
2018-06-03T11:54:28.224Z,8.30
2018-06-03T11:55:28.124Z,7.80
2018-06-03T11:57:20.956Z,7.70
2018-06-03T11:58:20.873Z,8.80
2018-06-03T12:00:13.749Z,8.00
2018-06-03T12:01:13.621Z,8.00
2018-06-03T12:03:06.558Z,7.00
2018-06-03T12:04:06.477Z,7.10
2018-06-03T12:05:59.323Z,6.90
2018-06-03T12:06:59.228Z,7.60
2018-06-03T12:08:52.069Z,7.90
2018-06-03T12:09:51.989Z,8.40
2018-06-03T12:11:44.825Z,7.90
2018-06-03T12:12:44.711Z,8.50
2018-06-03T12:14:37.565Z,7.70
2018-06-03T12:15:37.462Z,8.40
2018-06-03T12:17:30.409Z,7.50
2018-06-03T12:18:30.318Z,8.20
2018-06-03T12:20:23.178Z,8.80
2018-06-03T12:21:23.065Z,8.20
2018-06-03T12:23:15.906Z,8.70
2018-06-03T12:24:15.831Z,8.60
2018-06-03T12:26:08.673Z,8.60
2018-06-03T12:27:08.571Z,8.10
2018-06-03T12:29:01.407Z,8.40
2018-06-03T12:30:01.325Z,8.90
2018-06-03T12:31:54.271Z,8.70
2018-06-03T12:32:54.180Z,9.30
2018-06-03T12:34:47.041Z,9.00
2018-06-03T12:35:46.923Z,8.40
2018-06-03T12:37:39.768Z,8.80
2018-06-03T12:38:39.675Z,8.60
2018-06-03T12:40:32.825Z,8.30
2018-06-03T12:41:32.722Z,8.20
2018-06-03T12:43:25.575Z,8.20
2018-06-03T12:44:25.509Z,8.60
2018-06-03T12:46:18.321Z,8.50
2018-06-03T12:47:18.250Z,8.40
2018-06-03T12:49:11.067Z,8.10
2018-06-03T12:50:10.971Z,9.10
2018-06-03T12:52:04.354Z,9.70
2018-06-03T12:53:03.745Z,9.50
2018-06-03T12:54:56.579Z,9.10
2018-06-03T12:55:56.487Z,9.00
2018-06-03T12:57:49.343Z,8.70
2018-06-03T12:58:49.219Z,9.50
2018-06-03T13:00:42.073Z,9.20
2018-06-03T13:01:41.984Z,8.40
2018-06-03T13:03:34.929Z,9.40
2018-06-03T13:04:34.820Z,8.60
2018-06-03T13:06:28.265Z,9.20
2018-06-03T13:07:28.081Z,9.30
2018-06-03T13:09:20.921Z,9.20
2018-06-03T13:10:20.833Z,9.00
2018-06-03T13:12:13.683Z,8.40
2018-06-03T13:13:13.577Z,8.10
2018-06-03T13:15:06.430Z,8.60
2018-06-03T13:16:06.352Z,8.10
2018-06-03T13:17:59.297Z,8.30
2018-06-03T13:18:59.225Z,8.50
2018-06-03T13:20:52.031Z,9.00
2018-06-03T13:21:51.930Z,9.00
2018-06-03T13:23:44.808Z,9.20
2018-06-03T13:24:44.692Z,9.70
2018-06-03T13:26:37.546Z,9.80
2018-06-03T13:27:37.441Z,9.30
2018-06-03T13:29:30.287Z,9.50
2018-06-03T13:30:30.191Z,9.70
2018-06-03T13:32:23.039Z,10.20
2018-06-03T13:33:22.947Z,10.00
2018-06-03T13:35:15.821Z,9.70
2018-06-03T13:36:15.690Z,9.90
2018-06-03T13:38:08.520Z,10.00
2018-06-03T13:39:08.439Z,9.70
2018-06-03T13:41:01.320Z,10.00
2018-06-03T13:42:01.190Z,9.60
2018-06-03T13:43:54.152Z,9.50
2018-06-03T13:44:54.069Z,10.10
2018-06-03T13:46:46.875Z,10.10
2018-06-03T13:47:46.797Z,11.20
2018-06-03T13:49:39.656Z,10.90
2018-06-03T13:50:39.528Z,10.20
2018-06-03T13:52:32.871Z,10.00
2018-06-03T13:53:32.794Z,10.00
2018-06-03T13:55:27.092Z,9.20
2018-06-03T13:56:27.005Z,8.90
2018-06-03T13:58:19.809Z,9.20
2018-06-03T13:59:19.748Z,8.70
2018-06-03T14:01:12.614Z,8.60
2018-06-03T14:02:12.475Z,8.80
2018-06-03T14:04:05.317Z,8.40
2018-06-03T14:05:05.229Z,8.80
2018-06-03T14:06:58.092Z,8.50
2018-06-03T14:07:57.994Z,8.60
2018-06-03T14:09:50.855Z,8.70
2018-06-03T14:10:50.733Z,8.30
2018-06-03T14:12:43.791Z,8.20
2018-06-03T14:13:43.482Z,7.80
2018-06-03T14:15:36.328Z,8.20
2018-06-03T14:16:36.289Z,8.60
2018-06-03T14:18:29.062Z,8.40
2018-06-03T14:19:28.987Z,8.10
2018-06-03T14:21:21.854Z,8.10
2018-06-03T14:22:21.728Z,8.00
2018-06-03T14:24:15.079Z,8.00
2018-06-03T14:25:14.977Z,8.60
2018-06-03T14:27:07.851Z,8.90
2018-06-03T14:28:07.741Z,9.00
2018-06-03T14:30:00.590Z,8.80
2018-06-03T14:31:00.931Z,7.80
2018-06-03T14:32:53.334Z,7.10
2018-06-03T14:33:53.226Z,7.70
2018-06-03T14:35:46.106Z,8.30
2018-06-03T14:36:45.983Z,8.80
2018-06-03T14:38:38.892Z,8.70
2018-06-03T14:39:38.750Z,8.10
2018-06-03T14:41:31.589Z,8.10
2018-06-03T14:42:31.490Z,8.50
2018-06-03T14:44:24.317Z,8.50
2018-06-03T14:45:24.232Z,8.30
2018-06-03T14:47:17.183Z,8.10
2018-06-03T14:48:17.100Z,7.90
2018-06-03T14:50:09.960Z,8.10
2018-06-03T14:51:09.823Z,7.90
2018-06-03T14:53:03.194Z,8.50
2018-06-03T14:54:03.434Z,8.70
2018-06-03T14:55:55.946Z,8.60
2018-06-03T14:56:55.843Z,8.40
2018-06-03T14:58:48.636Z,8.30
2018-06-03T14:59:48.568Z,7.70
2018-06-03T15:01:41.412Z,7.50
2018-06-03T15:02:41.288Z,7.90
2018-06-03T15:04:34.123Z,8.00
2018-06-03T15:05:34.048Z,7.90
2018-06-03T15:07:26.888Z,7.70
2018-06-03T15:08:26.799Z,7.80
2018-06-03T15:10:19.689Z,7.60
2018-06-03T15:11:19.545Z,7.70
2018-06-03T15:13:12.374Z,7.50
2018-06-03T15:14:12.311Z,7.40
2018-06-03T15:16:05.139Z,8.10
2018-06-03T15:17:05.045Z,15.60
2018-06-03T15:18:57.883Z,10.90
2018-06-03T15:19:57.828Z,8.30
2018-06-03T15:21:50.671Z,7.50
2018-06-03T15:22:50.566Z,7.20
2018-06-03T15:24:44.355Z,6.40
2018-06-03T15:25:43.327Z,6.50
2018-06-03T15:27:36.224Z,5.80
2018-06-03T15:28:36.085Z,6.40
2018-06-03T15:30:28.970Z,6.80
2018-06-03T15:31:28.849Z,6.40
2018-06-03T15:33:21.695Z,6.20
2018-06-03T15:34:21.608Z,6.40
2018-06-03T15:36:15.975Z,7.20
2018-06-03T15:37:14.347Z,7.80
2018-06-03T15:39:07.177Z,8.00
2018-06-03T15:40:07.103Z,8.00
2018-06-03T15:42:00.879Z,8.10
2018-06-03T15:43:00.771Z,8.00
2018-06-03T15:44:53.607Z,8.10
2018-06-03T15:45:53.528Z,8.70
2018-06-03T15:47:46.370Z,8.10
2018-06-03T15:48:46.298Z,8.40
2018-06-03T15:50:39.425Z,8.50
2018-06-03T15:51:39.333Z,8.60
2018-06-03T15:53:32.283Z,8.90
2018-06-03T15:54:32.177Z,8.60
2018-06-03T15:56:25.039Z,8.70
2018-06-03T15:57:24.937Z,8.70
2018-06-03T15:59:17.776Z,9.30
2018-06-03T16:00:17.691Z,8.40
2018-06-03T16:02:10.566Z,8.90
2018-06-03T16:03:10.474Z,8.90
2018-06-03T16:05:03.348Z,7.80
2018-06-03T16:06:03.194Z,8.50
2018-06-03T16:07:56.199Z,8.60
2018-06-03T16:08:56.045Z,8.40
2018-06-03T16:10:48.896Z,8.60
2018-06-03T16:11:48.791Z,8.80
2018-06-03T16:13:41.679Z,10.60
2018-06-03T16:14:41.549Z,9.10
2018-06-03T16:16:34.408Z,10.30
2018-06-03T16:17:34.301Z,10.40
2018-06-03T16:19:27.134Z,12.60
2018-06-03T16:20:27.054Z,13.30
2018-06-03T16:22:19.904Z,12.80
2018-06-03T16:23:19.802Z,12.70
2018-06-03T16:25:12.653Z,12.30
2018-06-03T16:26:12.549Z,12.60
2018-06-03T16:28:05.426Z,13.70
2018-06-03T16:29:05.290Z,13.90
2018-06-03T16:30:58.136Z,13.70
2018-06-03T16:31:58.037Z,13.50
2018-06-03T16:33:50.874Z,13.40
2018-06-03T16:34:50.779Z,14.30
2018-06-03T16:36:43.630Z,15.30
2018-06-03T16:37:43.548Z,14.50
2018-06-03T16:39:36.363Z,15.30
2018-06-03T16:40:36.298Z,13.50
2018-06-03T16:42:29.144Z,14.90
2018-06-03T16:43:29.082Z,15.70
2018-06-03T16:45:21.869Z,14.40
2018-06-03T16:46:21.774Z,13.60
2018-06-03T16:48:14.599Z,15.00
2018-06-03T16:49:14.556Z,13.70
2018-06-03T16:51:07.370Z,13.60
2018-06-03T16:52:07.275Z,13.80
2018-06-03T16:54:00.125Z,13.60
2018-06-03T16:55:00.023Z,13.60
2018-06-03T16:56:52.989Z,12.30
2018-06-03T16:57:52.872Z,11.90
2018-06-03T16:59:45.723Z,11.80
2018-06-03T17:00:45.637Z,11.30
2018-06-03T17:02:38.472Z,11.40
2018-06-03T17:03:38.369Z,10.70
2018-06-03T17:05:31.218Z,11.70
2018-06-03T17:06:31.117Z,11.20
2018-06-03T17:08:23.970Z,10.60
2018-06-03T17:09:23.885Z,11.00
2018-06-03T17:11:16.726Z,11.30
2018-06-03T17:12:16.629Z,10.90
2018-06-03T17:14:09.457Z,9.40
2018-06-03T17:15:09.368Z,9.60
2018-06-03T17:17:02.214Z,9.50
2018-06-03T17:18:02.134Z,9.60
2018-06-03T17:19:54.954Z,9.20
2018-06-03T17:20:54.872Z,10.10
2018-06-03T17:22:47.746Z,10.30
2018-06-03T17:23:47.627Z,10.30
2018-06-03T17:25:40.522Z,10.60
2018-06-03T17:26:40.378Z,10.20
2018-06-03T17:28:33.299Z,10.20
2018-06-03T17:29:33.224Z,10.00
2018-06-03T17:31:26.070Z,10.80
2018-06-03T17:32:25.992Z,10.50
2018-06-03T17:34:18.825Z,10.10
2018-06-03T17:35:18.726Z,10.20
2018-06-03T17:37:11.598Z,9.40
2018-06-03T17:38:11.484Z,9.30
2018-06-03T17:40:04.304Z,9.40
2018-06-03T17:41:04.221Z,9.20
2018-06-03T17:42:57.085Z,10.40
2018-06-03T17:43:56.986Z,10.10
2018-06-03T17:45:49.811Z,10.40
2018-06-03T17:46:49.732Z,10.30
2018-06-03T17:48:43.098Z,10.80
2018-06-03T17:49:42.570Z,10.60
2018-06-03T17:51:35.440Z,10.60
2018-06-03T17:52:35.319Z,11.20
2018-06-03T17:54:28.254Z,10.60
2018-06-03T17:55:28.174Z,11.10
2018-06-03T17:57:21.124Z,10.80
2018-06-03T17:58:21.026Z,11.10
2018-06-03T18:00:13.874Z,11.80
2018-06-03T18:01:13.773Z,11.90
2018-06-03T18:03:06.651Z,11.40
2018-06-03T18:04:06.526Z,11.70
2018-06-03T18:05:59.487Z,11.80
2018-06-03T18:06:59.381Z,11.00
2018-06-03T18:08:52.234Z,11.20
2018-06-03T18:09:52.123Z,11.30
2018-06-03T18:11:48.466Z,12.40
2018-06-03T18:12:48.351Z,11.60
2018-06-03T18:14:41.877Z,12.20
2018-06-03T18:15:41.099Z,11.80
2018-06-03T18:17:33.969Z,11.80
2018-06-03T18:18:33.860Z,11.80
2018-06-03T18:20:27.092Z,11.80
2018-06-03T18:21:26.773Z,12.00
2018-06-03T18:23:19.661Z,12.50
2018-06-03T18:24:19.641Z,12.80
2018-06-03T18:26:12.429Z,12.50
2018-06-03T18:27:13.331Z,12.60
2018-06-03T18:29:06.072Z,13.10
2018-06-03T18:30:05.971Z,12.90
2018-06-03T18:31:59.409Z,12.80
2018-06-03T18:32:58.940Z,13.60
2018-06-03T18:34:51.971Z,13.10
2018-06-03T18:35:52.141Z,13.40
2018-06-03T18:37:44.635Z,13.70
2018-06-03T18:38:44.608Z,13.50
2018-06-03T18:40:38.891Z,14.10